Ansonia, Ohio
Current Conditions -  °F | °C
As of 10:35 PM on Monday 22 Dec 2014 (Local Time) from KVES Reporting Station
Scattered Clouds Scattered Clouds  
Wind Chill: 34°   Ceiling: Unl
Heat Index: 41°   Visibility: 10mi
Dew Point: 37°   Wind: 12mph
Humidity: 87%   Direction: 140°SE
Pressure: 29.73"   Gusts: NA
Location:  40.21°N, 84.64°W
Report Text: KVES 230335Z AUTO 14010KT 10SM SCT070 05/03 A2973 RMK AO2
Loading
Personal Weather Stations






























Interactive Weather Map New forecast layout! Learn more

10-Day Weather Forecast

Advertisements
Track Severe Weather on mobile